Time;durP1;ratioP1;P1;durP2;ratioP2;P2;SDS_P1;SDS_P2;PMS_P1;PMS_P2;Temp;Humidity;BMP_temperature;BMP_pressure;BME280_temperature;BME280_humidity;BME280_pressure;Samples;Min_cycle;Max_cycle;Signal;HPM_P1;HPM_P2
2022/05/29 00:02:23;;;;;;;0.60;0.60;;;;;;;9.96;67.45;99431.59;5016948;28;20389;-70
2022/05/29 00:04:52;;;;;;;1.02;0.95;;;;;;;9.93;67.71;99429.06;5016967;28;20120;-70
2022/05/29 00:07:21;;;;;;;0.43;0.43;;;;;;;10.09;67.61;99427.34;5016610;28;20553;-70
2022/05/29 00:09:52;;;;;;;0.88;0.88;;;;;;;10.14;67.24;99427.34;5016453;28;20042;-70
2022/05/29 00:12:24;;;;;;;0.52;0.52;;;;;;;10.17;67.34;99430.75;5016473;28;20077;-70
2022/05/29 00:14:58;;;;;;;0.63;0.63;;;;;;;10.28;66.57;99423.03;5016761;28;20450;-70
2022/05/29 00:17:27;;;;;;;0.73;0.73;;;;;;;10.35;67.01;99423.03;5016467;28;20084;-70
2022/05/29 00:19:56;;;;;;;0.70;0.70;;;;;;;10.20;67.02;99417.97;5016636;28;20393;-69
2022/05/29 00:22:26;;;;;;;0.50;0.50;;;;;;;10.16;66.85;99415.44;5016372;28;20060;-70
2022/05/29 00:24:55;;;;;;;1.45;1.30;;;;;;;10.09;66.91;99409.47;5016556;28;20104;-70
2022/05/29 00:27:27;;;;;;;0.63;0.63;;;;;;;10.05;66.98;99415.47;5016243;28;20057;-70
2022/05/29 00:30:05;;;;;;;0.40;0.40;;;;;;;9.98;67.43;99408.69;5015034;28;20271;-70
2022/05/29 00:32:34;;;;;;;0.47;0.47;;;;;;;10.08;67.24;99411.19;5016089;28;20042;-70
2022/05/29 00:35:04;;;;;;;0.70;0.70;;;;;;;10.18;67.25;99417.13;5014895;28;20050;-70
2022/05/29 00:37:40;;;;;;;0.30;0.30;;;;;;;10.17;67.27;99417.16;5016236;28;20476;-70
2022/05/29 00:40:25;;;;;;;0.40;0.40;;;;;;;10.19;66.85;99415.44;5015845;28;20046;-70
2022/05/29 00:42:57;;;;;;;0.52;0.52;;;;;;;10.10;67.29;99413.75;5016191;28;20562;-70
2022/05/29 00:45:47;;;;;;;1.80;0.98;;;;;;;9.99;67.49;99406.13;5015808;28;20042;-70
2022/05/29 00:48:29;;;;;;;0.90;0.90;;;;;;;9.91;67.41;99396.81;5015906;28;20046;-70
2022/05/29 00:51:04;;;;;;;0.55;0.55;;;;;;;9.83;67.84;99393.41;5015828;28;20049;-70
2022/05/29 00:53:37;;;;;;;0.82;0.68;;;;;;;9.59;67.84;99378.19;5015709;28;20066;-70
2022/05/29 00:56:13;;;;;;;0.60;0.60;;;;;;;9.48;68.75;99387.56;5015639;28;20041;-70
2022/05/29 00:58:45;;;;;;;0.50;0.50;;;;;;;9.39;68.25;99401.13;5015668;28;20096;-70
2022/05/29 01:01:17;;;;;;;0.43;0.43;;;;;;;9.37;68.81;99400.28;5015613;28;20069;-70
2022/05/29 01:03:46;;;;;;;0.40;0.40;;;;;;;9.24;68.19;99407.06;5015553;28;20045;-70
2022/05/29 01:06:15;;;;;;;0.63;0.63;;;;;;;9.16;68.95;99398.59;5015514;28;20045;-69
2022/05/29 01:08:48;;;;;;;21.98;1.70;;;;;;;9.09;69.41;99391.81;5014189;28;20559;-69
2022/05/29 01:11:30;;;;;;;0.60;0.60;;;;;;;9.01;69.57;99388.41;5015457;28;20076;-70
2022/05/29 01:14:14;;;;;;;0.30;0.30;;;;;;;8.90;69.81;99382.44;5015342;28;20057;-70
2022/05/29 01:17:02;;;;;;;0.50;0.50;;;;;;;8.84;69.44;99389.22;5015225;28;20065;-70
2022/05/29 01:19:56;;;;;;;1.10;1.00;;;;;;;8.76;70.41;99386.66;5015556;28;20108;-70
2022/05/29 01:22:42;;;;;;;0.30;0.30;;;;;;;8.76;70.92;99392.59;5015211;28;20578;-70
2022/05/29 01:25:34;;;;;;;0.43;0.43;;;;;;;8.91;70.81;99394.31;5015465;28;20514;-70
2022/05/29 01:28:17;;;;;;;0.60;0.60;;;;;;;9.04;69.72;99393.50;5015218;28;20112;-70
2022/05/29 01:31:03;;;;;;;0.73;0.73;;;;;;;9.01;69.36;99393.50;5015397;28;20056;-70
2022/05/29 01:33:40;;;;;;;0.43;0.43;;;;;;;8.79;69.62;99373.94;5014973;28;20044;-71
2022/05/29 01:36:15;;;;;;;0.55;0.55;;;;;;;8.78;70.38;99390.06;5015006;28;20057;-70
2022/05/29 01:38:52;;;;;;;0.82;0.70;;;;;;;8.84;69.91;99399.41;5016044;28;20450;-70
2022/05/29 01:41:29;;;;;;;0.32;0.32;;;;;;;9.03;69.63;99401.97;5015252;28;20415;-70
2022/05/29 01:44:07;;;;;;;0.70;0.70;;;;;;;9.19;69.20;99398.56;5014797;28;20049;-70
2022/05/29 01:46:36;;;;;;;0.73;0.73;;;;;;;9.35;69.39;99402.84;5014807;28;20073;-70
2022/05/29 01:49:15;;;;;;;0.55;0.55;;;;;;;9.41;67.87;99401.97;5014705;28;20050;-70
2022/05/29 01:51:51;;;;;;;0.85;0.85;;;;;;;9.49;67.98;99407.91;5014499;28;20050;-70
2022/05/29 01:54:38;;;;;;;1.67;1.27;;;;;;;9.48;67.60;99405.38;5014230;28;20050;-70
2022/05/29 01:57:16;;;;;;;0.57;0.57;;;;;;;9.45;66.99;99406.22;5014810;28;20038;-70
2022/05/29 01:59:53;;;;;;;0.50;0.50;;;;;;;9.40;66.67;99403.69;5013392;28;20081;-70
2022/05/29 02:02:28;;;;;;;0.57;0.57;;;;;;;9.40;65.23;99408.78;5014548;28;20073;-70
2022/05/29 02:05:01;;;;;;;0.70;0.70;;;;;;;9.35;65.48;99409.63;5014748;28;20376;-70
2022/05/29 02:10:31;;;;;;;0.60;0.60;;;;;;;9.16;65.43;99398.59;5013918;28;20495;-70
2022/05/29 02:13:07;;;;;;;5.38;1.35;;;;;;;9.14;65.19;99397.72;5014680;28;20088;-70
2022/05/29 02:15:47;;;;;;;0.50;0.50;;;;;;;9.13;65.60;99387.56;5014231;28;20049;-70
2022/05/29 02:18:35;;;;;;;0.40;0.40;;;;;;;9.06;65.29;99390.94;5014326;28;20038;-70
2022/05/29 02:21:09;;;;;;;0.40;0.40;;;;;;;9.02;65.72;99390.06;5014221;28;20122;-70
2022/05/29 02:23:43;;;;;;;0.85;0.85;;;;;;;9.06;65.06;99391.78;5014192;28;20124;-70
2022/05/29 02:26:18;;;;;;;0.50;0.50;;;;;;;9.13;65.91;99398.59;5014381;28;20076;-70
2022/05/29 02:29:08;;;;;;;5.30;0.80;;;;;;;9.03;64.92;99386.69;5014123;28;20042;-70
2022/05/29 02:32:07;;;;;;;0.40;0.40;;;;;;;8.95;65.36;99387.56;5014085;28;20046;-70
2022/05/29 02:34:43;;;;;;;0.40;0.40;;;;;;;8.99;65.00;99387.56;5014359;28;20099;-70
2022/05/29 02:37:21;;;;;;;0.47;0.47;;;;;;;8.90;65.82;99382.44;5014239;28;20114;-70
2022/05/29 02:40:05;;;;;;;0.35;0.35;;;;;;;8.62;66.64;99384.09;5014260;28;20038;-70
2022/05/29 02:42:44;;;;;;;0.50;0.50;;;;;;;8.50;67.10;99380.66;5014278;28;20069;-70
2022/05/29 02:45:21;;;;;;;0.60;0.60;;;;;;;8.58;66.92;99381.53;5014230;28;20499;-70
2022/05/29 02:48:08;;;;;;;0.45;0.45;;;;;;;8.66;67.67;99379.88;5013854;28;20803;-70
2022/05/29 02:50:45;;;;;;;0.60;0.60;;;;;;;8.79;67.38;99381.56;5014174;28;20115;-70
2022/05/29 02:53:18;;;;;;;0.60;0.60;;;;;;;8.84;66.99;99379.88;5014139;28;20149;-70
2022/05/29 02:55:47;;;;;;;0.50;0.50;;;;;;;8.88;66.52;99381.59;5013784;28;20116;-70
2022/05/29 02:58:21;;;;;;;0.60;0.60;;;;;;;8.86;66.02;99380.75;5013646;28;20042;-70
2022/05/29 03:01:04;;;;;;;0.82;0.82;;;;;;;8.85;65.92;99380.75;5014052;28;20078;-70
2022/05/29 03:03:47;;;;;;;0.75;0.75;;;;;;;8.85;66.03;99373.97;5014539;28;20381;-70
2022/05/29 03:06:29;;;;;;;0.88;0.88;;;;;;;8.85;65.26;99386.69;5018016;28;20590;-70
2022/05/29 03:09:16;;;;;;;0.70;0.70;;;;;;;8.90;65.76;99387.50;5017687;28;20402;-70
2022/05/29 03:11:47;;;;;;;0.57;0.57;;;;;;;8.84;65.50;99379.03;5017689;28;20053;-70
2022/05/29 03:14:41;;;;;;;1.45;1.02;;;;;;;8.75;65.45;99375.66;5017593;28;20046;-70
2022/05/29 03:17:25;;;;;;;0.30;0.30;;;;;;;8.82;66.32;99376.50;5017467;28;20141;-70
2022/05/29 03:20:09;;;;;;;0.40;0.40;;;;;;;8.85;65.44;99379.06;5017511;28;20565;-70
2022/05/29 03:22:56;;;;;;;1.13;1.02;;;;;;;8.86;65.64;99380.75;5017445;28;20073;-70
2022/05/29 03:25:32;;;;;;;0.60;0.60;;;;;;;8.88;65.60;99376.50;5017767;28;20048;-70
2022/05/29 03:28:10;;;;;;;0.50;0.50;;;;;;;8.85;65.83;99376.50;5017604;28;20111;-70
2022/05/29 03:30:45;;;;;;;0.60;0.60;;;;;;;8.83;66.30;99375.63;5017374;28;20050;-70
2022/05/29 03:33:16;;;;;;;0.50;0.50;;;;;;;8.79;66.57;99376.50;5017251;28;20092;-70
2022/05/29 03:36:14;;;;;;;1.02;0.95;;;;;;;8.88;66.64;99376.50;5017769;28;20125;-70
2022/05/29 03:39:09;;;;;;;0.85;0.85;;;;;;;8.97;66.24;99381.63;4856843;22;20024;-73
2022/05/29 03:41:43;;;;;;;0.40;0.40;;;;;;;9.03;66.49;99375.66;5017110;28;20510;-69
2022/05/29 03:44:26;;;;;;;0.50;0.50;;;;;;;9.14;65.55;99381.63;5017048;28;20050;-69
2022/05/29 03:46:59;;;;;;;19.23;1.00;;;;;;;9.22;66.43;99373.13;5016988;28;20057;-69
2022/05/29 03:49:29;;;;;;;0.45;0.45;;;;;;;9.30;65.59;99375.66;4983417;28;20456;-69
2022/05/29 03:52:03;;;;;;;0.60;0.52;;;;;;;9.36;65.05;99380.75;5017261;28;20062;-70
2022/05/29 03:54:32;;;;;;;0.60;0.60;;;;;;;9.40;65.20;99382.47;5017181;28;20128;-69
2022/05/29 03:57:00;;;;;;;0.85;0.85;;;;;;;9.45;65.52;99385.84;5016759;28;20046;-69
2022/05/29 03:59:29;;;;;;;0.67;0.67;;;;;;;9.49;64.87;99382.44;5016587;28;20104;-69
2022/05/29 04:02:01;;;;;;;0.97;0.97;;;;;;;9.54;65.04;99387.53;5016703;28;20042;-70
2022/05/29 04:04:30;;;;;;;0.40;0.40;;;;;;;9.65;65.08;99388.34;5017271;28;20488;-69
2022/05/29 04:07:04;;;;;;;0.83;0.77;;;;;;;9.76;64.80;99387.50;5016659;28;20510;-69
2022/05/29 04:12:24;;;;;;;0.50;0.50;;;;;;;9.86;64.28;99384.03;5017085;28;20056;-69
2022/05/29 04:14:57;;;;;;;0.47;0.47;;;;;;;9.92;64.35;99378.09;5016522;28;20501;-69
2022/05/29 04:17:26;;;;;;;1.23;1.13;;;;;;;9.99;64.80;99378.06;5016628;28;20463;-69
2022/05/29 04:19:58;;;;;;;0.97;0.93;;;;;;;10.01;64.17;99375.50;5016121;28;20073;-69
2022/05/29 04:22:28;;;;;;;0.77;0.75;;;;;;;10.14;63.90;99374.66;5016691;28;20045;-69
2022/05/29 04:24:57;;;;;;;0.75;0.75;;;;;;;10.28;63.67;99375.44;5016638;28;20074;-69
2022/05/29 04:27:26;;;;;;;0.50;0.50;;;;;;;10.36;63.32;99363.50;5016515;28;20491;-69
2022/05/29 04:29:55;;;;;;;0.50;0.50;;;;;;;10.45;63.20;99371.09;5016417;28;20065;-69
2022/05/29 04:35:02;;;;;;;0.50;0.50;;;;;;;10.63;62.49;99365.88;5016388;28;20477;-69
2022/05/29 04:37:33;;;;;;;1.15;1.05;;;;;;;10.66;62.75;99370.97;5016350;28;20060;-70
2022/05/29 04:40:13;;;;;;;0.70;0.70;;;;;;;10.69;62.46;99365.00;5024164;28;20145;-69
2022/05/29 04:42:45;;;;;;;;;;;;;;;10.63;62.96;99365.88;5036451;28;20380;-69
2022/05/29 04:45:14;;;;;;;0.70;0.70;;;;;;;10.65;62.29;99371.81;5018178;28;19921;-69
2022/05/29 04:47:43;;;;;;;0.50;0.50;;;;;;;10.54;62.80;99373.59;5035579;28;20100;-69
2022/05/29 04:50:13;;;;;;;0.40;0.40;;;;;;;10.58;62.23;99364.25;5035383;28;20052;-70
2022/05/29 04:52:43;;;;;;;2.25;2.05;;;;;;;10.80;62.01;99362.41;5035535;28;20103;-69
2022/05/29 04:55:13;;;;;;;0.50;0.50;;;;;;;10.99;62.08;99358.84;5035429;28;20045;-69
2022/05/29 04:57:43;;;;;;;0.47;0.47;;;;;;;11.15;61.48;99360.41;5035756;28;20077;-69
2022/05/29 05:00:13;;;;;;;0.93;0.88;;;;;;;11.18;61.39;99362.97;5035455;28;20483;-69
2022/05/29 05:02:43;;;;;;;1.55;1.20;;;;;;;11.17;61.14;99364.66;5035654;28;20049;-69
2022/05/29 05:05:21;;;;;;;0.50;0.50;;;;;;;11.30;60.96;99363.69;5035267;28;20107;-69
2022/05/29 05:07:52;;;;;;;0.50;0.50;;;;;;;11.42;60.52;99362.75;5035280;28;20053;-68
2022/05/29 05:10:21;;;;;;;0.50;0.50;;;;;;;11.57;60.11;99367.69;5035168;28;20065;-69
2022/05/29 05:12:52;;;;;;;0.50;0.50;;;;;;;11.71;60.06;99355.63;5035686;28;20475;-69
2022/05/29 05:15:22;;;;;;;1.77;1.00;;;;;;;11.82;59.61;99356.41;5035328;28;20054;-68
2022/05/29 05:17:54;;;;;;;0.47;0.47;;;;;;;11.95;59.27;99345.16;5017447;28;20041;-69
2022/05/29 05:20:26;;;;;;;0.75;0.70;;;;;;;12.00;58.59;99345.09;5034870;28;20083;-69
2022/05/29 05:22:57;;;;;;;0.50;0.50;;;;;;;12.01;58.53;99342.53;5017923;28;20483;-68
2022/05/29 05:25:29;;;;;;;0.40;0.40;;;;;;;12.19;59.15;99344.00;5034471;28;20045;-70
2022/05/29 05:27:59;;;;;;;0.55;0.55;;;;;;;12.30;58.82;99349.00;5033674;28;20574;-69
2022/05/29 05:30:28;;;;;;;0.50;0.50;;;;;;;12.35;58.68;99344.66;5035002;28;20068;-70
2022/05/29 05:32:57;;;;;;;0.50;0.50;;;;;;;12.56;58.40;99346.91;5034750;28;20064;-70
2022/05/29 05:35:29;;;;;;;0.50;0.50;;;;;;;12.74;58.05;99356.91;5034707;28;20057;-70
2022/05/29 05:38:02;;;;;;;0.40;0.40;;;;;;;12.75;57.82;99353.47;5034717;28;20051;-69
2022/05/29 05:40:31;;;;;;;0.70;0.70;;;;;;;12.75;57.48;99348.34;5034366;28;20064;-70
2022/05/29 05:43:00;;;;;;;0.60;0.60;;;;;;;12.81;57.66;99348.28;5034946;28;20073;-69
2022/05/29 05:45:30;;;;;;;0.50;0.50;;;;;;;12.85;57.55;99352.47;5034447;28;20068;-69
2022/05/29 05:47:59;;;;;;;0.43;0.43;;;;;;;12.97;56.92;99349.72;5034547;28;20040;-69
2022/05/29 05:50:31;;;;;;;0.80;0.80;;;;;;;13.10;56.47;99340.97;5034276;28;20502;-70
2022/05/29 05:53:00;;;;;;;1.00;1.00;;;;;;;13.24;55.65;99339.06;5034360;28;20363;-70
2022/05/29 05:55:30;;;;;;;1.20;0.88;;;;;;;13.28;54.77;99335.56;5034471;28;20037;-70
2022/05/29 05:57:59;;;;;;;0.50;0.50;;;;;;;13.43;54.16;99340.44;5034576;28;20046;-69
2022/05/29 06:00:28;;;;;;;0.77;0.77;;;;;;;13.59;53.97;99335.00;5034256;28;20049;-70
2022/05/29 06:02:57;;;;;;;0.70;0.70;;;;;;;13.75;53.33;99337.25;5034261;28;20390;-70
2022/05/29 06:05:26;;;;;;;0.50;0.50;;;;;;;13.93;53.50;99330.94;5034184;28;20041;-70
2022/05/29 06:07:55;;;;;;;1.35;1.23;;;;;;;14.05;52.23;99328.13;5034685;28;20426;-69
2022/05/29 06:10:24;;;;;;;0.63;0.63;;;;;;;14.07;51.70;99328.94;5034292;28;20061;-69
2022/05/29 06:12:56;;;;;;;0.93;0.88;;;;;;;14.12;52.03;99329.69;5034351;28;20049;-69
2022/05/29 06:15:32;;;;;;;0.50;0.50;;;;;;;14.17;51.88;99322.72;5033859;28;20049;-69
2022/05/29 06:18:01;;;;;;;0.60;0.60;;;;;;;14.25;51.66;99323.44;5034317;28;20037;-70
2022/05/29 06:20:30;;;;;;;1.20;0.93;;;;;;;14.34;51.81;99318.13;5034072;28;20076;-69
2022/05/29 06:22:59;;;;;;;0.50;0.50;;;;;;;14.48;52.06;99315.25;5033781;28;20037;-69
2022/05/29 06:25:28;;;;;;;1.38;1.15;;;;;;;14.60;51.72;99314.97;5033718;28;20037;-71
2022/05/29 06:28:00;;;;;;;0.50;0.50;;;;;;;14.76;51.35;99313.72;5033614;28;20041;-70
2022/05/29 06:30:29;;;;;;;1.10;1.05;;;;;;;14.82;50.24;99305.88;5033680;28;20140;-70
2022/05/29 06:33:02;;;;;;;0.50;0.50;;;;;;;14.89;51.22;99306.56;5033448;28;20092;-69
2022/05/29 06:35:31;;;;;;;0.55;0.55;;;;;;;15.09;51.56;99300.06;5033563;28;20049;-69
2022/05/29 06:38:00;;;;;;;2.10;1.47;;;;;;;15.32;51.44;99296.91;5032545;28;20045;-70
2022/05/29 06:40:29;;;;;;;0.50;0.50;;;;;;;15.56;50.11;99291.16;5013279;28;20499;-69
2022/05/29 06:43:00;;;;;;;0.70;0.70;;;;;;;15.70;48.75;99296.75;5013841;28;20061;-69
2022/05/29 06:45:30;;;;;;;0.47;0.47;;;;;;;15.79;49.23;99286.19;5013573;28;20645;-69
2022/05/29 06:47:59;;;;;;;0.50;0.50;;;;;;;15.74;48.82;99295.78;5013838;28;20045;-69
2022/05/29 06:50:29;;;;;;;0.50;0.50;;;;;;;15.71;48.85;99285.59;5013844;28;20415;-68
2022/05/29 06:52:58;;;;;;;0.60;0.60;;;;;;;15.71;48.93;99282.16;5013651;28;20061;-69
2022/05/29 06:55:27;;;;;;;0.60;0.60;;;;;;;15.88;48.60;99278.22;5013972;28;20046;-69
2022/05/29 06:57:57;;;;;;;0.60;0.60;;;;;;;16.06;48.33;99282.00;5013900;28;20803;-70
2022/05/29 07:08:29;;;;;;;0.90;0.90;;;;;;;16.55;48.21;99265.94;5013624;28;20105;-69
2022/05/29 07:11:01;;;;;;;0.63;0.63;;;;;;;16.69;47.80;99274.94;5014025;28;20085;-69
2022/05/29 07:13:32;;;;;;;0.65;0.65;;;;;;;16.81;47.17;99271.09;5013800;28;20443;-69
2022/05/29 07:16:03;;;;;;;0.50;0.50;;;;;;;16.89;46.90;99258.81;5013684;28;20046;-69
2022/05/29 07:18:32;;;;;;;0.80;0.80;;;;;;;17.03;46.13;99263.50;5013819;28;20078;-70
2022/05/29 07:21:02;;;;;;;0.52;0.52;;;;;;;17.11;45.61;99261.50;5013423;28;20042;-69
2022/05/29 07:23:32;;;;;;;1.20;1.08;;;;;;;17.19;44.70;99254.34;5013534;28;20054;-69
2022/05/29 07:26:05;;;;;;;0.40;0.40;;;;;;;17.34;44.78;99254.69;5013533;28;20049;-70
2022/05/29 07:28:34;;;;;;;0.60;0.60;;;;;;;17.44;44.63;99250.84;5013312;28;20046;-69
2022/05/29 07:31:04;;;;;;;0.98;0.98;;;;;;;17.58;44.13;99255.56;5013331;28;20046;-70
2022/05/29 07:33:33;;;;;;;0.60;0.60;;;;;;;17.77;43.52;99250.59;5013724;28;20089;-70
2022/05/29 07:36:02;;;;;;;0.40;0.40;;;;;;;17.96;42.93;99254.16;5013564;28;20483;-69
2022/05/29 07:38:31;;;;;;;0.40;0.40;;;;;;;18.09;43.04;99255.41;5013699;28;20328;-69
2022/05/29 07:41:00;;;;;;;1.33;1.03;;;;;;;18.26;43.45;99263.31;5013054;28;20049;-69
2022/05/29 07:43:28;;;;;;;0.73;0.73;;;;;;;18.34;42.77;99250.13;4995967;28;20073;-70
2022/05/29 07:45:59;;;;;;;0.57;0.57;;;;;;;18.45;42.10;99256.53;5013268;28;20049;-70
2022/05/29 07:48:34;;;;;;;0.60;0.60;;;;;;;18.55;41.24;99244.97;5013487;28;20046;-68
2022/05/29 07:51:04;;;;;;;0.50;0.50;;;;;;;18.56;40.31;99251.84;5014344;28;20053;-70
2022/05/29 07:53:33;;;;;;;0.50;0.50;;;;;;;18.38;39.22;99242.19;5016647;28;20034;-69
2022/05/29 07:56:03;;;;;;;0.50;0.50;;;;;;;18.50;39.48;99246.09;5016731;28;20046;-69
2022/05/29 07:58:33;;;;;;;0.50;0.50;;;;;;;18.51;38.32;99232.25;5016932;28;20050;-70
2022/05/29 08:01:05;;;;;;;0.60;0.60;;;;;;;18.69;38.10;99227.16;5016645;28;20046;-70
2022/05/29 08:03:35;;;;;;;0.50;0.50;;;;;;;18.79;37.62;99226.81;5016533;28;20129;-70
2022/05/29 08:06:04;;;;;;;0.80;0.80;;;;;;;18.93;36.94;99224.47;5017173;28;20399;-70
2022/05/29 08:08:34;;;;;;;3.60;1.33;;;;;;;19.00;36.51;99220.72;4999589;28;20042;-70
2022/05/29 08:11:03;;;;;;;0.60;0.60;;;;;;;19.09;36.27;99221.19;5016746;28;20050;-69
2022/05/29 08:13:33;;;;;;;0.50;0.50;;;;;;;19.05;36.40;99223.97;5015367;28;20046;-70
2022/05/29 08:16:03;;;;;;;0.50;0.50;;;;;;;19.11;35.82;99211.59;5016750;28;20132;-70
2022/05/29 08:18:36;;;;;;;0.80;0.80;;;;;;;19.28;35.71;99211.72;5017006;28;20041;-70
2022/05/29 08:21:05;;;;;;;0.40;0.40;;;;;;;19.43;35.33;99212.84;5016306;28;20038;-70
2022/05/29 08:23:35;;;;;;;0.60;0.60;;;;;;;19.51;35.08;99190.03;5016262;28;20133;-70
2022/05/29 08:31:30;;;;;;;0.60;0.60;;;;;;;19.75;33.75;99195.84;5016525;28;20440;-70
2022/05/29 08:34:00;;;;;;;1.00;0.80;;;;;;;19.88;33.76;99190.03;5016051;28;20130;-70
2022/05/29 08:36:29;;;;;;;0.50;0.50;;;;;;;19.80;33.40;99176.59;5016375;28;20042;-69
2022/05/29 08:38:58;;;;;;;0.40;0.40;;;;;;;19.88;33.16;99182.28;5015878;28;20081;-69
2022/05/29 08:41:35;;;;;;;0.50;0.50;;;;;;;19.92;32.72;99165.66;5015689;28;20053;-70
2022/05/29 08:44:25;;;;;;;0.68;0.68;;;;;;;19.95;32.12;99178.47;5015724;28;20133;-70
2022/05/29 08:47:01;;;;;;;0.70;0.70;;;;;;;19.93;30.88;99167.34;5015890;28;20056;-70
2022/05/29 08:49:33;;;;;;;0.55;0.55;;;;;;;20.22;31.76;99175.50;5016464;28;20042;-70
2022/05/29 08:52:14;;;;;;;0.60;0.60;;;;;;;20.34;31.06;99174.94;5015786;28;20104;-70
2022/05/29 08:54:49;;;;;;;1.77;0.52;;;;;;;20.45;31.07;99178.69;5015683;28;20077;-70
2022/05/29 08:57:42;;;;;;;0.50;0.50;;;;;;;20.40;31.67;99169.44;5015673;28;20061;-70
2022/05/29 09:00:19;;;;;;;0.50;0.50;;;;;;;20.48;31.77;99172.50;5015596;28;20046;-70
2022/05/29 09:03:04;;;;;;;0.60;0.60;;;;;;;20.69;30.56;99167.09;5015290;28;20053;-70
2022/05/29 09:05:41;;;;;;;0.50;0.50;;;;;;;20.79;29.54;99167.47;5015641;28;20563;-70
2022/05/29 09:08:17;;;;;;;0.60;0.60;;;;;;;20.92;29.04;99171.16;5015349;28;20503;-70
2022/05/29 09:10:48;;;;;;;0.40;0.40;;;;;;;21.15;29.45;99163.03;5016172;28;20142;-70
2022/05/29 09:13:27;;;;;;;0.50;0.50;;;;;;;21.31;29.23;99166.50;4998142;28;20492;-71
2022/05/29 09:16:02;;;;;;;0.50;0.50;;;;;;;21.20;28.79;99157.59;5015631;28;20050;-70
2022/05/29 09:18:45;;;;;;;0.40;0.40;;;;;;;21.08;27.58;99169.47;5015556;28;20108;-70
2022/05/29 09:21:49;;;;;;;0.60;0.60;;;;;;;20.91;27.67;99164.25;4997607;28;20037;-70
2022/05/29 09:24:32;;;;;;;0.40;0.40;;;;;;;20.83;27.48;99158.63;5015409;28;20550;-70
2022/05/29 09:27:01;;;;;;;1.00;0.70;;;;;;;20.68;28.16;99164.59;5015340;28;20045;-69
2022/05/29 09:29:36;;;;;;;0.50;0.50;;;;;;;20.47;28.32;99168.22;5015410;28;20125;-69
2022/05/29 09:32:14;;;;;;;0.63;0.50;;;;;;;20.36;27.89;99158.41;5014808;28;20050;-69
2022/05/29 09:35:00;;;;;;;0.47;0.47;;;;;;;20.51;28.40;99156.81;5015063;28;20491;-69
2022/05/29 09:37:48;;;;;;;0.47;0.47;;;;;;;20.68;28.61;99155.03;5015195;28;20170;-69
2022/05/29 09:40:28;;;;;;;0.77;0.77;;;;;;;20.60;27.78;99156.34;5014614;28;20392;-70
2022/05/29 09:42:57;;;;;;;0.50;0.50;;;;;;;20.65;27.39;99149.19;4997556;28;20140;-70
2022/05/29 09:45:30;;;;;;;0.70;0.60;;;;;;;20.76;27.84;99152.06;5014717;28;20042;-69
2022/05/29 09:50:46;;;;;;;0.80;0.80;;;;;;;20.96;27.54;99132.91;5014544;28;20092;-71
2022/05/29 09:53:20;;;;;;;0.60;0.60;;;;;;;20.89;27.82;99122.00;5015009;28;20046;-69
2022/05/29 09:55:53;;;;;;;0.50;0.50;;;;;;;21.01;28.13;99123.97;5014582;28;20062;-69
2022/05/29 09:58:29;;;;;;;0.55;0.55;;;;;;;20.83;27.55;99114.50;5014830;28;20080;-69
2022/05/29 10:01:04;;;;;;;0.50;0.50;;;;;;;20.92;27.63;99114.06;5014361;28;20056;-70
2022/05/29 10:03:55;;;;;;;0.60;0.60;;;;;;;21.13;28.25;99109.53;5014439;28;20081;-70
2022/05/29 10:06:34;;;;;;;0.43;0.43;;;;;;;21.16;26.36;99114.56;5009885;28;20492;-69
2022/05/29 10:09:17;;;;;;;0.43;0.43;;;;;;;21.05;25.97;99107.34;5014744;28;20052;-69
2022/05/29 10:11:56;;;;;;;0.50;0.50;;;;;;;21.11;26.08;99109.63;5014666;28;20133;-70
2022/05/29 10:14:38;;;;;;;0.50;0.50;;;;;;;21.20;27.25;99105.69;4996266;28;20514;-69
2022/05/29 10:17:16;;;;;;;0.50;0.50;;;;;;;21.17;26.49;99106.69;5014531;28;20124;-70
2022/05/29 10:19:47;;;;;;;0.47;0.47;;;;;;;21.04;26.39;99084.84;5014269;28;20053;-70
2022/05/29 10:22:27;;;;;;;0.60;0.60;;;;;;;20.96;26.97;99086.19;5013274;28;20050;-70
2022/05/29 10:24:58;;;;;;;0.60;0.60;;;;;;;21.24;27.32;99094.22;5014164;28;20070;-71
2022/05/29 10:27:32;;;;;;;0.60;0.60;;;;;;;21.57;27.01;99089.78;5014152;28;20054;-70
2022/05/29 10:30:10;;;;;;;0.60;0.60;;;;;;;21.69;26.07;99080.50;5012967;28;20563;-70
2022/05/29 10:32:43;;;;;;;0.47;0.47;;;;;;;21.82;26.09;99090.13;5014267;28;20057;-69
2022/05/29 10:35:22;;;;;;;0.45;0.45;;;;;;;21.86;26.91;99090.81;5013982;28;20077;-69
2022/05/29 10:37:53;;;;;;;0.60;0.60;;;;;;;21.92;28.39;99085.28;5013784;28;20045;-70
2022/05/29 10:40:27;;;;;;;0.40;0.40;;;;;;;21.99;27.79;99089.22;5013604;28;20060;-69
2022/05/29 10:43:06;;;;;;;0.50;0.50;;;;;;;22.08;26.74;99087.84;5013895;28;20034;-67
2022/05/29 10:45:43;;;;;;;0.80;0.80;;;;;;;22.13;26.58;99084.06;5014176;28;20046;-68
2022/05/29 10:48:49;;;;;;;0.50;0.50;;;;;;;22.21;28.11;99087.06;5013875;28;20069;-67
2022/05/29 10:51:22;;;;;;;0.40;0.40;;;;;;;22.25;26.72;99088.56;4955770;28;20071;-71
2022/05/29 10:54:08;;;;;;;0.40;0.40;;;;;;;22.28;26.25;99083.19;5014349;28;20088;-70
2022/05/29 10:56:51;;;;;;;0.40;0.40;;;;;;;22.52;26.43;99081.75;5013736;28;20050;-69
2022/05/29 10:59:47;;;;;;;0.50;0.50;;;;;;;22.38;26.50;99073.94;5013684;28;20049;-70
2022/05/29 11:06:15;;;;;;;0.47;0.47;;;;;;;22.09;26.98;99069.56;5013704;28;20045;-69
2022/05/29 11:09:02;;;;;;;1.35;0.88;;;;;;;21.75;26.12;99067.16;4967084;28;20053;-69
2022/05/29 11:11:47;;;;;;;4.85;1.05;;;;;;;21.65;26.04;99068.59;5013836;28;20422;-69
2022/05/29 11:14:34;;;;;;;0.60;0.60;;;;;;;21.45;26.10;99068.88;5013996;28;20506;-67
2022/05/29 11:17:24;;;;;;;0.50;0.50;;;;;;;21.51;27.26;99073.72;5013516;28;20073;-69
2022/05/29 11:20:24;;;;;;;0.30;0.30;;;;;;;21.67;26.25;99069.34;5012853;28;20052;-69
2022/05/29 11:23:08;;;;;;;0.40;0.40;;;;;;;21.61;27.18;99059.31;5007840;28;20049;-70
2022/05/29 11:25:50;;;;;;;0.50;0.50;;;;;;;21.66;27.09;99052.09;5015933;28;20392;-70
2022/05/29 11:28:50;;;;;;;0.50;0.50;;;;;;;21.58;26.84;99057.72;5017295;28;20042;-70
2022/05/29 11:31:50;;;;;;;0.50;0.50;;;;;;;21.62;26.85;99050.59;5016799;28;20038;-71
2022/05/29 11:34:33;;;;;;;0.50;0.50;;;;;;;21.74;26.67;99040.34;5017731;28;20121;-69
2022/05/29 11:37:27;;;;;;;0.55;0.55;;;;;;;21.86;27.86;99041.44;5017007;28;20052;-69
2022/05/29 11:40:16;;;;;;;0.52;0.52;;;;;;;22.11;27.83;99041.72;5016947;28;20113;-70
2022/05/29 11:42:52;;;;;;;0.50;0.50;;;;;;;22.25;27.33;99043.50;5017030;28;20046;-69
2022/05/29 11:51:07;;;;;;;0.50;0.50;;;;;;;22.26;27.27;99046.03;4999715;28;20053;-70
2022/05/29 11:51:18;;;;;;;0.47;0.47;;;;;;;22.33;29.51;99042.16;5017088;28;20499;-69
2022/05/29 11:53:53;;;;;;;0.50;0.50;;;;;;;22.33;28.88;99029.16;5016969;28;20073;-68
2022/05/29 11:56:27;;;;;;;0.65;0.65;;;;;;;22.34;28.88;99036.00;5016781;28;20053;-69
2022/05/29 11:59:05;;;;;;;0.70;0.70;;;;;;;22.23;28.26;99033.22;5016692;28;20058;-69
2022/05/29 12:01:42;;;;;;;0.50;0.50;;;;;;;21.90;28.24;99035.16;5016715;28;20045;-68
2022/05/29 12:04:34;;;;;;;0.40;0.40;;;;;;;21.72;29.21;99036.16;5016554;28;20081;-68
2022/05/29 12:07:10;;;;;;;0.75;0.75;;;;;;;21.38;29.13;99028.59;5016975;28;20045;-69
2022/05/29 12:09:46;;;;;;;0.50;0.50;;;;;;;21.19;28.88;99032.16;5016891;28;20388;-68
2022/05/29 12:12:18;;;;;;;0.40;0.40;;;;;;;21.27;28.57;99037.78;5016516;28;20140;-69
2022/05/29 12:14:53;;;;;;;1.25;0.90;;;;;;;21.35;30.34;99021.81;5016497;28;20046;-68
2022/05/29 12:17:30;;;;;;;0.50;0.50;;;;;;;21.42;31.55;99017.94;5016746;28;20566;-68
2022/05/29 12:20:07;;;;;;;1.00;0.95;;;;;;;21.46;32.27;99019.44;5016446;28;20061;-68
2022/05/29 12:22:43;;;;;;;0.30;0.30;;;;;;;21.46;31.80;99034.19;5016518;28;20128;-68
2022/05/29 12:25:28;;;;;;;0.70;0.70;;;;;;;21.38;31.82;99027.66;5016316;28;20077;-68
2022/05/29 12:28:03;;;;;;;0.60;0.60;;;;;;;21.18;31.72;99030.50;5016217;28;20057;-69
2022/05/29 12:30:39;;;;;;;0.50;0.50;;;;;;;21.19;31.65;99026.97;5016230;28;20056;-69
2022/05/29 12:33:15;;;;;;;0.60;0.60;;;;;;;20.81;31.59;99029.91;5016088;28;20542;-68
2022/05/29 12:35:55;;;;;;;0.80;0.80;;;;;;;20.62;32.46;99030.03;5016090;28;20096;-68
2022/05/29 12:38:54;;;;;;;0.30;0.30;;;;;;;20.66;32.24;99029.78;5015626;28;20058;-67
2022/05/29 12:41:39;;;;;;;0.50;0.50;;;;;;;20.75;32.42;99025.06;5015880;28;20156;-68
2022/05/29 12:44:28;;;;;;;1.15;1.05;;;;;;;21.07;33.05;99030.22;5016087;28;20053;-69
2022/05/29 12:47:19;;;;;;;0.50;0.50;;;;;;;21.35;32.16;99022.63;5015903;28;20054;-69
2022/05/29 12:50:10;;;;;;;0.40;0.40;;;;;;;21.58;32.93;99018.75;5016149;28;20132;-69